Time;durP1;ratioP1;P1;durP2;ratioP2;P2;SDS_P1;SDS_P2;PMS_P1;PMS_P2;Temp;Humidity;BMP_temperature;BMP_pressure;BME280_temperature;BME280_humidity;BME280_pressure;Samples;Min_cycle;Max_cycle;Signal;HPM_P1;HPM_P2
2023/07/07 00:00:52;;;;;;;3.87;3.47;;;;;;;;;;5045497;28;20177;-72
2023/07/07 00:03:19;;;;;;;4.80;3.70;;;;;;;;;;5044134;28;20221;-73
2023/07/07 00:05:46;;;;;;;5.30;3.80;;;;;;;;;;5046152;28;20262;-73
2023/07/07 00:08:13;;;;;;;6.63;3.70;;;;;;;;;;5042239;28;20279;-73
2023/07/07 00:10:43;;;;;;;5.23;3.53;;;;;;;;;;5049584;28;20189;-72
2023/07/07 00:13:11;;;;;;;4.47;3.30;;;;;;;;;;5046245;28;20685;-72
2023/07/07 00:15:44;;;;;;;4.17;3.30;;;;;;;;;;5050041;28;20709;-73
2023/07/07 00:18:26;;;;;;;4.60;2.97;;;;;;;;;;5030691;28;20195;-72
2023/07/07 00:20:52;;;;;;;4.97;3.20;;;;;;;;;;5031539;28;20178;-72
2023/07/07 00:23:18;;;;;;;4.60;3.30;;;;;;;;;;5044408;28;20200;-72
2023/07/07 00:25:45;;;;;;;3.63;3.07;;;;;;;;;;5048369;28;20177;-72
2023/07/07 00:28:11;;;;;;;4.30;2.60;;;;;;;;;;5046465;28;20178;-73
2023/07/07 00:30:37;;;;;;;5.23;3.20;;;;;;;;;;5043814;28;20281;-73
2023/07/07 00:33:03;;;;;;;3.63;3.23;;;;;;;;;;5049128;28;20186;-73
2023/07/07 00:35:29;;;;;;;5.53;3.10;;;;;;;;;;5049446;28;20293;-73
2023/07/07 00:37:56;;;;;;;5.43;3.03;;;;;;;;;;5049840;28;20210;-73
2023/07/07 00:40:22;;;;;;;4.80;3.40;;;;;;;;;;5051226;28;20532;-74
2023/07/07 00:42:48;;;;;;;5.57;3.10;;;;;;;;;;5029647;28;20273;-74
2023/07/07 00:45:16;;;;;;;4.80;3.17;;;;;;;;;;5052424;28;20208;-74
2023/07/07 00:47:42;;;;;;;3.90;2.97;;;;;;;;;;5049012;28;20298;-72
2023/07/07 00:50:10;;;;;;;3.53;3.20;;;;;;;;;;5029126;28;20234;-72
2023/07/07 00:52:37;;;;;;;5.33;3.17;;;;;;;;;;5052797;28;20774;-73
2023/07/07 00:55:04;;;;;;;3.80;3.17;;;;;;;;;;5053528;28;20213;-72
2023/07/07 00:57:30;;;;;;;3.97;3.40;;;;;;;;;;5041097;28;20314;-72
2023/07/07 00:59:56;;;;;;;3.37;3.03;;;;;;;;;;5053151;28;20195;-72
2023/07/07 01:02:25;;;;;;;5.50;3.50;;;;;;;;;;5016045;28;20202;-73
2023/07/07 01:04:53;;;;;;;5.77;3.40;;;;;;;;;;5031456;28;20178;-72
2023/07/07 01:07:23;;;;;;;4.53;3.17;;;;;;;;;;5043664;28;20198;-73
2023/07/07 01:09:49;;;;;;;3.80;3.40;;;;;;;;;;5030297;28;20186;-73
2023/07/07 01:12:15;;;;;;;4.10;3.33;;;;;;;;;;5051710;28;20281;-73
2023/07/07 01:14:43;;;;;;;4.33;3.93;;;;;;;;;;5037605;28;20263;-72
2023/07/07 01:17:31;;;;;;;4.37;3.50;;;;;;;;;;5050689;28;20235;-73
2023/07/07 01:20:07;;;;;;;5.03;3.90;;;;;;;;;;5051961;28;20300;-74
2023/07/07 01:22:52;;;;;;;4.47;3.90;;;;;;;;;;5050940;28;20268;-72
2023/07/07 01:25:27;;;;;;;5.60;4.10;;;;;;;;;;5051855;28;20193;-72
2023/07/07 01:28:12;;;;;;;4.77;3.97;;;;;;;;;;5034281;28;20220;-73
2023/07/07 01:30:38;;;;;;;5.33;4.20;;;;;;;;;;5046055;28;20193;-72
2023/07/07 01:33:07;;;;;;;4.30;3.67;;;;;;;;;;5050826;28;20228;-72
2023/07/07 01:35:33;;;;;;;4.07;3.50;;;;;;;;;;5034264;28;20858;-72
2023/07/07 01:38:01;;;;;;;3.90;3.50;;;;;;;;;;5044488;28;20183;-72
2023/07/07 01:40:35;;;;;;;5.17;4.00;;;;;;;;;;5044270;28;20178;-72
2023/07/07 01:43:13;;;;;;;5.07;3.70;;;;;;;;;;5034017;28;20661;-73
2023/07/07 01:45:44;;;;;;;4.70;3.90;;;;;;;;;;5052118;28;20633;-72
2023/07/07 01:48:26;;;;;;;4.13;3.50;;;;;;;;;;5047169;28;20546;-72
2023/07/07 01:50:53;;;;;;;7.70;3.30;;;;;;;;;;5037551;28;20290;-72
2023/07/07 01:53:22;;;;;;;4.27;3.80;;;;;;;;;;5051933;28;20190;-72
2023/07/07 01:55:50;;;;;;;7.47;4.27;;;;;;;;;;5052540;28;20620;-72
2023/07/07 01:58:18;;;;;;;6.50;3.80;;;;;;;;;;5033428;28;20186;-72
2023/07/07 02:00:44;;;;;;;4.47;3.47;;;;;;;;;;5029859;28;20237;-72
2023/07/07 02:03:11;;;;;;;4.40;3.80;;;;;;;;;;5049790;28;20196;-73
2023/07/07 02:05:37;;;;;;;4.93;4.13;;;;;;;;;;5052077;28;20182;-73
2023/07/07 02:08:03;;;;;;;5.00;3.80;;;;;;;;;;5050531;28;20612;-72
2023/07/07 02:10:29;;;;;;;5.97;3.90;;;;;;;;;;5034222;28;20650;-72
2023/07/07 02:12:56;;;;;;;5.23;4.40;;;;;;;;;;5034366;28;20190;-75
2023/07/07 02:15:22;;;;;;;4.73;4.10;;;;;;;;;;5051995;28;20212;-72
2023/07/07 02:17:48;;;;;;;6.00;4.10;;;;;;;;;;5034066;28;20689;-72
2023/07/07 02:20:14;;;;;;;6.97;4.30;;;;;;;;;;5028657;28;20344;-73
2023/07/07 02:22:41;;;;;;;4.97;4.40;;;;;;;;;;5030008;28;20821;-72
2023/07/07 02:25:07;;;;;;;6.40;4.07;;;;;;;;;;5032519;28;20197;-73
2023/07/07 02:27:33;;;;;;;5.70;4.20;;;;;;;;;;5049992;28;20205;-73
2023/07/07 02:29:59;;;;;;;6.23;4.20;;;;;;;;;;5048029;28;20185;-73
2023/07/07 02:32:28;;;;;;;4.83;3.90;;;;;;;;;;5034050;28;20242;-73
2023/07/07 02:34:57;;;;;;;5.53;3.97;;;;;;;;;;5044721;28;20210;-72
2023/07/07 02:37:23;;;;;;;6.33;3.77;;;;;;;;;;5032810;28;20689;-73
2023/07/07 02:39:51;;;;;;;4.43;3.73;;;;;;;;;;5033287;28;20210;-73
2023/07/07 02:42:18;;;;;;;4.23;3.50;;;;;;;;;;5046508;28;20178;-73
2023/07/07 02:44:45;;;;;;;4.30;3.73;;;;;;;;;;5031734;28;21820;-72
2023/07/07 02:47:11;;;;;;;4.47;3.87;;;;;;;;;;5047088;28;20205;-73
2023/07/07 02:49:37;;;;;;;4.40;3.90;;;;;;;;;;5051662;28;20193;-72
2023/07/07 02:52:04;;;;;;;4.67;4.27;;;;;;;;;;5032784;28;20205;-73
2023/07/07 02:54:30;;;;;;;6.40;4.13;;;;;;;;;;5032721;28;20217;-74
2023/07/07 02:56:56;;;;;;;4.73;3.70;;;;;;;;;;5051329;28;20275;-73
2023/07/07 02:59:22;;;;;;;4.43;3.90;;;;;;;;;;5033397;28;20209;-73
2023/07/07 03:01:49;;;;;;;4.90;3.90;;;;;;;;;;5036642;28;20317;-74
2023/07/07 03:04:15;;;;;;;4.57;4.17;;;;;;;;;;5039991;28;20181;-73
2023/07/07 03:06:42;;;;;;;5.33;4.60;;;;;;;;;;5029892;28;20225;-73
2023/07/07 03:09:09;;;;;;;6.33;4.40;;;;;;;;;;5048176;28;20266;-75
2023/07/07 03:11:37;;;;;;;4.70;4.30;;;;;;;;;;5032814;28;20185;-75
2023/07/07 03:14:05;;;;;;;6.03;4.20;;;;;;;;;;5030119;28;20263;-74
2023/07/07 03:16:33;;;;;;;6.07;4.20;;;;;;;;;;5047368;28;20210;-75
2023/07/07 03:19:08;;;;;;;4.83;4.37;;;;;;;;;;5046887;28;20181;-74
2023/07/07 03:21:45;;;;;;;5.23;4.33;;;;;;;;;;5032638;28;20587;-74
2023/07/07 03:24:27;;;;;;;4.93;4.10;;;;;;;;;;5023568;28;20260;-74
2023/07/07 03:26:53;;;;;;;6.83;4.73;;;;;;;;;;5035318;28;20216;-74
2023/07/07 03:29:21;;;;;;;5.20;4.30;;;;;;;;;;5033591;28;20201;-74
2023/07/07 03:31:48;;;;;;;5.27;4.37;;;;;;;;;;5029725;28;20235;-73
2023/07/07 03:34:14;;;;;;;4.67;4.13;;;;;;;;;;5033489;28;20595;-72
2023/07/07 03:36:44;;;;;;;4.40;4.00;;;;;;;;;;5032960;28;20611;-73
2023/07/07 03:39:12;;;;;;;4.70;4.20;;;;;;;;;;5031289;28;20235;-74
2023/07/07 03:41:38;;;;;;;7.23;4.20;;;;;;;;;;5029228;28;20259;-72
2023/07/07 03:44:05;;;;;;;5.53;4.30;;;;;;;;;;5033007;28;20190;-75
2023/07/07 03:46:34;;;;;;;4.80;4.00;;;;;;;;;;5038567;28;20607;-74
2023/07/07 03:49:01;;;;;;;4.57;4.17;;;;;;;;;;5033185;28;20182;-76
2023/07/07 03:51:34;;;;;;;4.10;3.60;;;;;;;;;;5040641;28;20189;-75
2023/07/07 03:54:04;;;;;;;6.50;4.13;;;;;;;;;;5032348;28;20228;-75
2023/07/07 03:56:31;;;;;;;5.77;3.83;;;;;;;;;;5032301;28;20233;-74
2023/07/07 03:58:57;;;;;;;5.20;4.47;;;;;;;;;;5029620;28;20236;-74
2023/07/07 04:01:24;;;;;;;5.57;4.43;;;;;;;;;;5031992;28;20189;-74
2023/07/07 04:03:51;;;;;;;5.97;4.43;;;;;;;;;;5032293;28;20677;-74
2023/07/07 04:06:18;;;;;;;4.40;4.00;;;;;;;;;;5012425;28;20212;-74
2023/07/07 04:08:45;;;;;;;4.57;3.90;;;;;;;;;;5044540;28;20189;-74
2023/07/07 04:11:14;;;;;;;5.87;4.00;;;;;;;;;;5041350;28;20198;-74
2023/07/07 04:13:41;;;;;;;4.47;3.77;;;;;;;;;;5026888;28;20649;-71
2023/07/07 04:16:11;;;;;;;5.27;3.70;;;;;;;;;;5056613;28;20696;-75
2023/07/07 04:18:38;;;;;;;5.23;3.87;;;;;;;;;;5032367;28;20192;-70
2023/07/07 04:21:06;;;;;;;6.17;4.10;;;;;;;;;;5053411;28;20178;-75
2023/07/07 04:23:33;;;;;;;5.20;3.80;;;;;;;;;;5052731;28;20193;-73
2023/07/07 04:25:59;;;;;;;5.33;4.20;;;;;;;;;;5036918;28;20227;-75
2023/07/07 04:28:25;;;;;;;5.10;4.17;;;;;;;;;;5053328;28;20210;-75
2023/07/07 04:30:52;;;;;;;6.43;3.80;;;;;;;;;;5050211;28;20177;-75
2023/07/07 04:33:18;;;;;;;4.60;3.70;;;;;;;;;;5053698;28;20733;-75
2023/07/07 04:35:44;;;;;;;5.60;3.53;;;;;;;;;;5053590;28;20244;-75
2023/07/07 04:38:10;;;;;;;6.57;3.90;;;;;;;;;;5036318;28;20289;-75
2023/07/07 04:40:37;;;;;;;4.80;4.30;;;;;;;;;;5017301;28;20189;-75
2023/07/07 04:43:03;;;;;;;6.43;4.10;;;;;;;;;;5036418;28;20178;-75
2023/07/07 04:45:29;;;;;;;6.20;4.33;;;;;;;;;;5053490;28;20209;-75
2023/07/07 04:47:55;;;;;;;6.43;4.20;;;;;;;;;;5053977;28;20210;-75
2023/07/07 04:50:21;;;;;;;4.67;3.60;;;;;;;;;;5053644;28;20185;-75
2023/07/07 04:52:47;;;;;;;5.90;4.07;;;;;;;;;;5054377;28;20186;-75
2023/07/07 04:55:13;;;;;;;8.07;4.20;;;;;;;;;;5036005;28;20209;-77
2023/07/07 04:57:39;;;;;;;5.57;3.77;;;;;;;;;;5054185;28;20198;-75
2023/07/07 05:00:07;;;;;;;6.57;4.20;;;;;;;;;;5052544;28;20186;-75
2023/07/07 05:02:35;;;;;;;6.77;4.13;;;;;;;;;;5051960;28;20235;-75
2023/07/07 05:05:01;;;;;;;4.47;3.60;;;;;;;;;;5054329;28;20680;-75
2023/07/07 05:07:28;;;;;;;6.10;4.30;;;;;;;;;;5045062;28;20228;-75
2023/07/07 05:09:54;;;;;;;6.37;3.90;;;;;;;;;;5019786;28;20193;-76
2023/07/07 05:12:21;;;;;;;6.40;4.13;;;;;;;;;;5051919;28;20231;-75
2023/07/07 05:14:47;;;;;;;7.20;4.10;;;;;;;;;;5035916;28;20209;-75
2023/07/07 05:17:13;;;;;;;7.50;4.63;;;;;;;;;;5053870;28;20645;-75
2023/07/07 05:19:39;;;;;;;5.53;4.20;;;;;;;;;;5052138;28;20657;-75
2023/07/07 05:22:05;;;;;;;6.13;4.20;;;;;;;;;;5051821;28;20205;-77
2023/07/07 05:24:31;;;;;;;6.80;4.33;;;;;;;;;;5025949;28;20253;-75
2023/07/07 05:26:57;;;;;;;5.07;4.10;;;;;;;;;;5051833;28;20197;-75
2023/07/07 05:29:23;;;;;;;7.20;4.27;;;;;;;;;;5047274;28;20182;-75
2023/07/07 05:31:50;;;;;;;5.63;4.30;;;;;;;;;;5033727;28;20223;-75
2023/07/07 05:34:16;;;;;;;5.20;3.97;;;;;;;;;;5049704;28;20178;-75
2023/07/07 05:36:42;;;;;;;7.10;4.40;;;;;;;;;;5048120;28;20206;-75
2023/07/07 05:39:08;;;;;;;7.50;4.13;;;;;;;;;;5025577;28;20194;-75
2023/07/07 05:41:35;;;;;;;7.60;4.47;;;;;;;;;;5050755;28;20189;-75
2023/07/07 05:44:01;;;;;;;7.30;4.30;;;;;;;;;;5052510;28;20549;-75
2023/07/07 05:46:27;;;;;;;5.33;4.13;;;;;;;;;;5043763;28;20840;-75
2023/07/07 05:48:53;;;;;;;5.67;4.27;;;;;;;;;;5050504;28;20662;-76
2023/07/07 05:51:19;;;;;;;5.50;4.23;;;;;;;;;;5049289;28;20673;-76
2023/07/07 05:53:47;;;;;;;6.87;3.97;;;;;;;;;;5050369;28;20194;-76
2023/07/07 05:56:20;;;;;;;6.40;4.73;;;;;;;;;;5042119;28;20213;-75
2023/07/07 05:58:46;;;;;;;6.43;3.80;;;;;;;;;;5051597;28;20192;-76
2023/07/07 06:01:13;;;;;;;8.37;3.97;;;;;;;;;;5051715;28;20185;-75
2023/07/07 06:03:40;;;;;;;6.80;4.00;;;;;;;;;;5038970;28;20650;-75
2023/07/07 06:06:06;;;;;;;5.70;4.30;;;;;;;;;;5051149;28;20345;-75
2023/07/07 06:08:33;;;;;;;7.47;4.30;;;;;;;;;;5052312;28;20273;-74
2023/07/07 06:10:59;;;;;;;4.40;3.63;;;;;;;;;;5050458;28;20566;-73
2023/07/07 06:13:27;;;;;;;4.63;3.53;;;;;;;;;;5052335;28;20174;-74
2023/07/07 06:15:53;;;;;;;9.30;4.47;;;;;;;;;;5051667;28;20250;-76
2023/07/07 06:18:20;;;;;;;5.40;3.80;;;;;;;;;;5049217;28;20186;-76
2023/07/07 06:20:53;;;;;;;7.47;4.37;;;;;;;;;;5040911;28;20281;-76
2023/07/07 06:23:19;;;;;;;6.60;4.07;;;;;;;;;;5049858;28;20618;-76
2023/07/07 06:25:47;;;;;;;7.60;4.10;;;;;;;;;;5035256;28;20318;-76
2023/07/07 06:28:14;;;;;;;7.67;3.97;;;;;;;;;;5040153;28;20189;-75
2023/07/07 06:30:40;;;;;;;6.97;4.47;;;;;;;;;;5052198;28;20225;-77
2023/07/07 06:33:07;;;;;;;8.03;4.63;;;;;;;;;;5044354;28;20713;-76
2023/07/07 06:35:36;;;;;;;5.33;4.13;;;;;;;;;;5027794;28;20278;-76
2023/07/07 06:38:03;;;;;;;5.47;4.10;;;;;;;;;;5024227;28;20622;-75
2023/07/07 06:40:29;;;;;;;5.43;4.03;;;;;;;;;;5040106;28;20270;-77
2023/07/07 06:42:56;;;;;;;5.33;4.33;;;;;;;;;;5051867;28;20181;-75
2023/07/07 06:45:23;;;;;;;7.57;4.30;;;;;;;;;;5031066;28;20269;-75
2023/07/07 06:47:50;;;;;;;5.33;4.00;;;;;;;;;;5046833;28;20206;-76
2023/07/07 06:50:18;;;;;;;5.40;4.23;;;;;;;;;;5044950;28;20182;-77
2023/07/07 06:52:44;;;;;;;4.70;3.73;;;;;;;;;;5045486;28;20190;-75
2023/07/07 06:55:10;;;;;;;7.93;4.60;;;;;;;;;;5046683;28;20217;-75
2023/07/07 06:57:36;;;;;;;9.17;4.57;;;;;;;;;;5046586;28;20210;-75
2023/07/07 07:00:03;;;;;;;6.43;4.17;;;;;;;;;;5036725;28;20961;-75
2023/07/07 07:02:30;;;;;;;5.93;4.07;;;;;;;;;;5047144;28;20190;-75
2023/07/07 07:04:56;;;;;;;5.53;4.30;;;;;;;;;;5029123;28;20736;-75
2023/07/07 07:07:22;;;;;;;5.83;4.50;;;;;;;;;;5046473;28;21190;-75
2023/07/07 07:09:48;;;;;;;7.60;4.20;;;;;;;;;;5047388;28;20202;-75
2023/07/07 07:12:15;;;;;;;5.03;3.70;;;;;;;;;;5045126;28;20274;-75
2023/07/07 07:14:41;;;;;;;7.50;3.93;;;;;;;;;;5048419;28;20217;-76
2023/07/07 07:17:08;;;;;;;6.03;3.80;;;;;;;;;;5049442;28;20202;-75
2023/07/07 07:19:34;;;;;;;8.00;3.97;;;;;;;;;;5047053;28;20186;-75
2023/07/07 07:22:00;;;;;;;7.00;4.70;;;;;;;;;;5032999;28;20235;-77
2023/07/07 07:24:26;;;;;;;5.30;3.60;;;;;;;;;;5050723;28;20178;-77
2023/07/07 07:26:52;;;;;;;6.47;4.00;;;;;;;;;;5050240;28;20364;-77
2023/07/07 07:29:18;;;;;;;7.20;3.80;;;;;;;;;;5049359;28;20681;-77
2023/07/07 07:31:45;;;;;;;6.57;3.60;;;;;;;;;;5043722;28;20178;-75
2023/07/07 07:34:28;;;;;;;5.13;3.53;;;;;;;;;;5045054;28;20189;-76
2023/07/07 07:36:55;;;;;;;5.33;3.53;;;;;;;;;;5045774;28;20221;-75
2023/07/07 07:39:21;;;;;;;6.43;3.40;;;;;;;;;;5046779;28;20182;-75
2023/07/07 07:41:48;;;;;;;4.13;3.10;;;;;;;;;;5048553;28;20262;-75
2023/07/07 07:44:15;;;;;;;3.93;3.03;;;;;;;;;;5045860;28;20185;-75
2023/07/07 07:46:42;;;;;;;3.93;3.13;;;;;;;;;;5046116;28;20209;-75
2023/07/07 07:49:08;;;;;;;4.13;3.03;;;;;;;;;;5046346;28;20189;-78
2023/07/07 07:51:38;;;;;;;3.20;2.90;;;;;;;;;;5028415;28;20615;-78
2023/07/07 07:54:06;;;;;;;5.40;2.87;;;;;;;;;;5046913;28;20184;-75
2023/07/07 07:56:32;;;;;;;3.83;3.00;;;;;;;;;;5046170;28;20225;-75
2023/07/07 07:59:00;;;;;;;4.53;3.40;;;;;;;;;;5029556;28;20649;-77
2023/07/07 08:01:26;;;;;;;4.50;3.30;;;;;;;;;;5046294;28;20182;-76
2023/07/07 08:03:52;;;;;;;3.50;2.90;;;;;;;;;;5046690;28;20189;-75
2023/07/07 08:06:19;;;;;;;4.23;2.70;;;;;;;;;;5047052;28;20233;-75
2023/07/07 08:08:45;;;;;;;3.60;3.10;;;;;;;;;;5045336;28;20182;-75
2023/07/07 08:11:15;;;;;;;4.37;2.93;;;;;;;;;;5045349;28;20215;-75
2023/07/07 08:13:41;;;;;;;5.27;3.10;;;;;;;;;;5045223;28;20185;-76
2023/07/07 08:16:10;;;;;;;3.67;3.03;;;;;;;;;;5045980;28;20217;-75
2023/07/07 08:18:36;;;;;;;6.97;3.10;;;;;;;;;;5045695;28;20699;-77
2023/07/07 08:21:03;;;;;;;5.53;3.20;;;;;;;;;;5046267;28;20178;-76
2023/07/07 08:23:29;;;;;;;5.30;2.60;;;;;;;;;;5028416;28;20192;-77
2023/07/07 08:25:55;;;;;;;3.73;3.00;;;;;;;;;;5026962;28;20276;-76
2023/07/07 08:28:21;;;;;;;4.70;3.03;;;;;;;;;;5028195;28;20194;-76
2023/07/07 08:30:47;;;;;;;4.43;2.87;;;;;;;;;;5045892;28;20650;-76
2023/07/07 08:33:13;;;;;;;5.57;3.07;;;;;;;;;;5046349;28;20189;-77
2023/07/07 08:35:40;;;;;;;4.77;2.90;;;;;;;;;;5035389;28;20216;-77
2023/07/07 08:38:06;;;;;;;2.97;2.60;;;;;;;;;;5032120;28;20240;-75
2023/07/07 08:40:43;;;;;;;3.43;2.73;;;;;;;;;;5047189;28;20583;-76
2023/07/07 08:43:11;;;;;;;4.17;2.90;;;;;;;;;;5049170;28;20178;-74
2023/07/07 08:45:40;;;;;;;5.27;2.70;;;;;;;;;;5049676;28;20212;-77
2023/07/07 08:48:14;;;;;;;4.57;3.10;;;;;;;;;;5049455;28;20652;-76
2023/07/07 08:50:43;;;;;;;12.43;2.90;;;;;;;;;;5049639;28;20174;-75
2023/07/07 08:53:18;;;;;;;4.53;2.70;;;;;;;;;;5049433;28;20190;-75
2023/07/07 08:55:56;;;;;;;7.50;2.80;;;;;;;;;;5049293;28;20217;-75
2023/07/07 08:58:29;;;;;;;3.17;2.67;;;;;;;;;;5049422;28;20185;-75
2023/07/07 09:01:03;;;;;;;4.43;2.83;;;;;;;;;;5051304;28;20178;-75
2023/07/07 09:03:38;;;;;;;2.93;2.60;;;;;;;;;;5054344;28;20174;-75
2023/07/07 09:06:12;;;;;;;3.83;2.70;;;;;;;;;;5046424;28;20222;-78
2023/07/07 09:08:47;;;;;;;3.80;3.07;;;;;;;;;;5050465;28;20607;-75
2023/07/07 09:11:20;;;;;;;7.47;2.90;;;;;;;;;;5047552;28;20239;-75
2023/07/07 09:13:47;;;;;;;4.30;2.70;;;;;;;;;;5049310;28;20194;-75
2023/07/07 09:16:18;;;;;;;3.23;2.80;;;;;;;;;;5051462;28;20297;-75
2023/07/07 09:19:00;;;;;;;4.13;3.10;;;;;;;;;;5053941;28;20576;-75
2023/07/07 09:21:43;;;;;;;2.63;2.43;;;;;;;;;;5052021;28;20284;-75
2023/07/07 09:24:17;;;;;;;3.80;3.17;;;;;;;;;;5045319;28;20552;-75
2023/07/07 09:26:44;;;;;;;3.67;2.80;;;;;;;;;;5046525;28;20205;-75
2023/07/07 09:29:19;;;;;;;5.67;3.50;;;;;;;;;;5053661;28;20716;-76
2023/07/07 09:31:45;;;;;;;5.70;3.13;;;;;;;;;;5048812;28;20735;-75
2023/07/07 09:34:13;;;;;;;4.40;3.10;;;;;;;;;;5051191;28;20183;-75
2023/07/07 09:36:42;;;;;;;3.87;3.17;;;;;;;;;;5051951;28;20249;-75
2023/07/07 09:39:17;;;;;;;4.30;3.40;;;;;;;;;;5034376;28;20189;-75
2023/07/07 09:42:02;;;;;;;3.90;3.30;;;;;;;;;;5034708;28;20170;-76
2023/07/07 09:44:28;;;;;;;9.40;3.57;;;;;;;;;;5044013;28;20182;-75
2023/07/07 09:47:00;;;;;;;4.30;3.43;;;;;;;;;;5048639;28;20260;-73
2023/07/07 09:49:36;;;;;;;4.37;3.20;;;;;;;;;;5048189;28;20188;-74
2023/07/07 09:52:11;;;;;;;4.10;3.70;;;;;;;;;;5047128;28;20193;-73
2023/07/07 09:54:38;;;;;;;6.07;3.40;;;;;;;;;;5050336;28;20197;-74
2023/07/07 09:57:11;;;;;;;4.47;3.20;;;;;;;;;;5050475;28;20208;-72
2023/07/07 09:59:42;;;;;;;4.90;3.50;;;;;;;;;;5050940;28;20194;-73
2023/07/07 10:02:13;;;;;;;4.10;3.50;;;;;;;;;;5045838;28;20174;-73
2023/07/07 10:04:43;;;;;;;5.00;3.90;;;;;;;;;;5051147;28;20272;-70
2023/07/07 10:07:10;;;;;;;5.30;3.87;;;;;;;;;;5052933;28;20210;-70
2023/07/07 10:09:36;;;;;;;7.03;4.00;;;;;;;;;;5043118;28;20186;-70
2023/07/07 10:12:03;;;;;;;4.23;3.80;;;;;;;;;;5037102;28;20231;-69
2023/07/07 10:14:29;;;;;;;4.93;4.10;;;;;;;;;;5049083;28;20263;-70
2023/07/07 10:17:02;;;;;;;3.87;3.43;;;;;;;;;;5045296;28;20286;-70
2023/07/07 10:19:28;;;;;;;4.10;3.70;;;;;;;;;;5045322;28;20636;-70
2023/07/07 10:21:55;;;;;;;4.73;3.80;;;;;;;;;;5051204;28;20213;-70
2023/07/07 10:24:21;;;;;;;5.10;3.70;;;;;;;;;;5051057;28;20184;-70
2023/07/07 10:26:48;;;;;;;4.50;3.87;;;;;;;;;;5044258;28;20619;-70
2023/07/07 10:29:21;;;;;;;5.60;4.40;;;;;;;;;;5051583;28;20188;-70
2023/07/07 10:31:48;;;;;;;6.47;4.00;;;;;;;;;;5048178;28;20205;-70
2023/07/07 10:34:33;;;;;;;4.53;4.03;;;;;;;;;;5047203;28;20653;-71
2023/07/07 10:36:59;;;;;;;4.67;4.00;;;;;;;;;;5050772;28;20251;-70
2023/07/07 10:39:30;;;;;;;8.33;4.47;;;;;;;;;;5048776;28;20185;-71
2023/07/07 10:41:57;;;;;;;4.77;4.20;;;;;;;;;;5050352;28;20524;-72
2023/07/07 10:44:24;;;;;;;5.23;4.13;;;;;;;;;;5048249;28;20192;-72
2023/07/07 10:46:50;;;;;;;8.00;4.90;;;;;;;;;;5050818;28;20289;-70
2023/07/07 10:49:19;;;;;;;6.73;4.73;;;;;;;;;;5051738;28;20360;-71
2023/07/07 10:52:00;;;;;;;5.17;4.67;;;;;;;;;;5052138;28;20184;-74
2023/07/07 10:54:29;;;;;;;6.10;4.80;;;;;;;;;;5031406;28;20654;-73
2023/07/07 10:57:16;;;;;;;5.00;4.50;;;;;;;;;;5044298;28;20201;-74
2023/07/07 10:59:43;;;;;;;7.20;4.93;;;;;;;;;;5050436;28;20181;-76
2023/07/07 11:02:20;;;;;;;5.43;4.80;;;;;;;;;;5051080;28;20181;-75
2023/07/07 11:05:02;;;;;;;6.97;4.73;;;;;;;;;;5046041;28;20192;-74
2023/07/07 11:07:54;;;;;;;5.27;4.73;;;;;;;;;;5046790;28;20215;-74
2023/07/07 11:10:39;;;;;;;5.33;4.83;;;;;;;;;;5051536;28;20203;-73
2023/07/07 11:13:11;;;;;;;5.37;4.87;;;;;;;;;;5033866;28;20185;-76
2023/07/07 11:15:42;;;;;;;6.60;5.30;;;;;;;;;;5051677;28;20198;-75
2023/07/07 11:18:14;;;;;;;6.13;5.30;;;;;;;;;;5052526;28;20672;-74
2023/07/07 11:20:53;;;;;;;6.30;5.40;;;;;;;;;;5042443;28;20197;-74
2023/07/07 11:23:38;;;;;;;6.00;5.40;;;;;;;;;;5051435;28;20174;-73
2023/07/07 11:26:17;;;;;;;6.63;5.63;;;;;;;;;;5051465;28;20657;-74
2023/07/07 11:28:46;;;;;;;6.77;5.37;;;;;;;;;;5032715;28;20781;-74
2023/07/07 11:31:15;;;;;;;5.57;5.07;;;;;;;;;;5041050;28;20198;-74
2023/07/07 11:33:55;;;;;;;5.63;5.03;;;;;;;;;;5050864;28;20191;-73
2023/07/07 11:36:40;;;;;;;6.63;6.03;;;;;;;;;;5051164;28;20216;-74
2023/07/07 11:39:17;;;;;;;7.30;6.20;;;;;;;;;;5051442;28;20205;-74
2023/07/07 11:42:05;;;;;;;7.90;6.23;;;;;;;;;;5051253;28;20584;-73
2023/07/07 11:44:50;;;;;;;6.63;5.70;;;;;;;;;;5040290;28;20180;-74
2023/07/07 11:47:31;;;;;;;6.90;6.20;;;;;;;;;;5049590;28;20208;-73
2023/07/07 11:50:09;;;;;;;7.60;6.10;;;;;;;;;;5049717;28;20231;-75
2023/07/07 11:52:44;;;;;;;7.33;6.63;;;;;;;;;;5051222;28;20181;-74
2023/07/07 11:55:29;;;;;;;7.50;6.17;;;;;;;;;;5050054;28;20259;-74
2023/07/07 11:58:06;;;;;;;7.77;6.20;;;;;;;;;;5051333;28;20260;-74
2023/07/07 12:00:36;;;;;;;7.10;6.40;;;;;;;;;;5051083;28;20183;-74
2023/07/07 12:03:18;;;;;;;6.90;6.20;;;;;;;;;;5049843;28;20215;-74
2023/07/07 12:05:46;;;;;;;7.23;6.53;;;;;;;;;;5050116;28;20245;-74
2023/07/07 12:08:15;;;;;;;7.47;6.77;;;;;;;;;;5050843;28;20189;-73
2023/07/07 12:10:44;;;;;;;7.30;6.60;;;;;;;;;;5055833;28;20718;-76
2023/07/07 12:13:13;;;;;;;8.43;7.37;;;;;;;;;;5050794;28;20174;-74
2023/07/07 12:15:42;;;;;;;7.03;6.20;;;;;;;;;;5050702;28;20762;-76
2023/07/07 12:18:21;;;;;;;7.00;6.30;;;;;;;;;;5051008;28;20206;-74
2023/07/07 12:20:49;;;;;;;7.63;6.93;;;;;;;;;;5033731;28;20195;-75
2023/07/07 12:23:18;;;;;;;7.23;6.53;;;;;;;;;;5032974;28;20197;-74
2023/07/07 12:25:46;;;;;;;8.27;6.73;;;;;;;;;;5049201;28;20234;-74
2023/07/07 12:28:12;;;;;;;7.30;6.60;;;;;;;;;;5050948;28;20208;-75
2023/07/07 12:30:43;;;;;;;8.10;6.10;;;;;;;;;;5050865;28;20275;-74
2023/07/07 12:33:10;;;;;;;6.93;6.23;;;;;;;;;;5050562;28;20186;-74
2023/07/07 12:35:55;;;;;;;7.30;6.60;;;;;;;;;;5041265;28;20254;-76
2023/07/07 12:38:27;;;;;;;6.77;6.17;;;;;;;;;;5052428;28;20213;-74
2023/07/07 12:40:55;;;;;;;7.03;6.33;;;;;;;;;;5054469;28;20626;-74
2023/07/07 12:43:27;;;;;;;7.07;6.37;;;;;;;;;;5054610;28;20213;-74
2023/07/07 12:45:53;;;;;;;7.50;6.80;;;;;;;;;;5054472;28;20184;-74
2023/07/07 12:48:21;;;;;;;7.30;6.60;;;;;;;;;;5043366;28;20245;-74
2023/07/07 12:50:48;;;;;;;7.40;6.70;;;;;;;;;;5054349;28;20192;-75
2023/07/07 12:53:27;;;;;;;7.33;6.63;;;;;;;;;;5053153;28;20179;-73
2023/07/07 12:56:01;;;;;;;7.00;6.40;;;;;;;;;;5041626;28;20219;-74
2023/07/07 12:58:48;;;;;;;7.33;6.70;;;;;;;;;;5054419;28;20595;-74
2023/07/07 13:01:14;;;;;;;7.37;6.67;;;;;;;;;;5053983;28;20667;-74
2023/07/07 13:04:00;;;;;;;7.80;7.00;;;;;;;;;;5054357;28;20228;-74
2023/07/07 13:06:33;;;;;;;8.10;7.30;;;;;;;;;;5054554;28;20212;-74
2023/07/07 13:09:18;;;;;;;7.80;7.10;;;;;;;;;;5053549;28;20204;-74
2023/07/07 13:11:45;;;;;;;7.83;7.13;;;;;;;;;;5053964;28;20205;-74
2023/07/07 13:14:27;;;;;;;7.60;6.90;;;;;;;;;;5053623;28;20197;-74
2023/07/07 13:16:54;;;;;;;7.40;6.63;;;;;;;;;;5034507;28;20224;-76
2023/07/07 13:19:21;;;;;;;7.33;6.63;;;;;;;;;;5052012;28;20587;-74
2023/07/07 13:21:48;;;;;;;7.65;6.95;;;;;;;;;;5059555;28;20182;-75
2023/07/07 13:24:16;;;;;;;7.95;7.18;;;;;;;;;;5072005;28;20183;-74
2023/07/07 13:26:42;;;;;;;8.27;7.10;;;;;;;;;;5072688;28;20204;-74
2023/07/07 13:29:09;;;;;;;7.65;7.05;;;;;;;;;;5066047;28;20210;-75
2023/07/07 13:31:42;;;;;;;8.48;7.60;;;;;;;;;;5051804;28;20239;-74
2023/07/07 13:34:13;;;;;;;7.72;7.00;;;;;;;;;;5057935;28;20649;-74
2023/07/07 13:36:40;;;;;;;7.93;7.22;;;;;;;;;;5060706;28;20230;-75
2023/07/07 13:39:08;;;;;;;8.82;8.02;;;;;;;;;;5040372;28;20281;-75
2023/07/07 13:41:34;;;;;;;7.95;7.25;;;;;;;;;;5052954;28;20185;-75
2023/07/07 13:44:01;;;;;;;8.35;7.55;;;;;;;;;;5055241;28;20236;-75
2023/07/07 13:46:31;;;;;;;8.35;7.35;;;;;;;;;;5050306;28;20214;-75
2023/07/07 13:49:00;;;;;;;8.02;7.32;;;;;;;;;;5053454;28;20185;-75
2023/07/07 13:51:31;;;;;;;8.00;7.28;;;;;;;;;;5053114;28;20188;-75
2023/07/07 13:53:59;;;;;;;8.57;7.65;;;;;;;;;;5053532;28;20177;-75
2023/07/07 13:56:26;;;;;;;8.40;7.57;;;;;;;;;;5051803;28;20219;-74
2023/07/07 13:58:52;;;;;;;8.55;7.72;;;;;;;;;;5049560;28;20187;-75
2023/07/07 14:01:30;;;;;;;9.75;8.05;;;;;;;;;;5052174;28;20184;-75
2023/07/07 14:03:59;;;;;;;9.73;8.77;;;;;;;;;;5052875;28;20251;-76
2023/07/07 14:06:25;;;;;;;9.88;8.30;;;;;;;;;;5053041;28;20194;-76
2023/07/07 14:08:51;;;;;;;9.48;8.57;;;;;;;;;;5052543;28;20209;-79
2023/07/07 14:11:19;;;;;;;9.30;8.32;;;;;;;;;;5051067;28;20189;-76
2023/07/07 14:13:52;;;;;;;8.93;8.13;;;;;;;;;;5046775;28;20212;-78
2023/07/07 14:16:20;;;;;;;9.63;8.73;;;;;;;;;;5045389;28;20213;-78
2023/07/07 14:18:51;;;;;;;8.73;7.93;;;;;;;;;;5049147;28;20193;-78
2023/07/07 14:21:19;;;;;;;9.00;8.20;;;;;;;;;;5049750;28;20185;-78
2023/07/07 14:23:47;;;;;;;8.40;7.70;;;;;;;;;;5055992;28;20218;-82
2023/07/07 14:26:15;;;;;;;9.13;8.30;;;;;;;;;;5050836;28;20293;-80
2023/07/07 14:28:41;;;;;;;8.98;8.15;;;;;;;;;;5035320;28;20186;-80
2023/07/07 14:31:09;;;;;;;8.77;8.07;;;;;;;;;;5051393;28;20186;-78
2023/07/07 14:33:46;;;;;;;9.20;8.30;;;;;;;;;;5017649;28;20545;-77
2023/07/07 14:36:22;;;;;;;9.63;8.70;;;;;;;;;;5052221;28;20613;-75
2023/07/07 14:38:52;;;;;;;8.45;7.75;;;;;;;;;;5031931;28;20170;-75
2023/07/07 14:41:20;;;;;;;9.43;8.52;;;;;;;;;;5046258;28;20677;-76
2023/07/07 14:43:46;;;;;;;9.23;8.35;;;;;;;;;;5052321;28;20190;-78
2023/07/07 14:46:19;;;;;;;10.73;8.68;;;;;;;;;;5052058;28;20211;-78
2023/07/07 14:48:52;;;;;;;8.80;8.05;;;;;;;;;;5052554;28;20182;-77
2023/07/07 14:51:26;;;;;;;8.77;7.95;;;;;;;;;;5052204;28;20235;-78
2023/07/07 14:54:01;;;;;;;9.32;8.52;;;;;;;;;;5052050;28;20193;-77
2023/07/07 14:56:30;;;;;;;9.38;8.57;;;;;;;;;;5050695;28;20220;-77